sensor_id;sensor_type;location;lat;lon;timestamp;temperature;humidity
11107;DHT22;5607;48.302;14.294;2023-02-01T00:02:06;4.40;84.60
11107;DHT22;5607;48.302;14.294;2023-02-01T00:04:52;4.50;81.10
11107;DHT22;5607;48.302;14.294;2023-02-01T00:07:39;4.20;99.90
11107;DHT22;5607;48.302;14.294;2023-02-01T00:10:25;4.20;99.90
11107;DHT22;5607;48.302;14.294;2023-02-01T00:13:12;4.10;99.90
11107;DHT22;5607;48.302;14.294;2023-02-01T00:16:02;4.10;99.90
11107;DHT22;5607;48.302;14.294;2023-02-01T00:18:57;4.20;99.90
11107;DHT22;5607;48.302;14.294;2023-02-01T00:21:47;4.10;99.90
11107;DHT22;5607;48.302;14.294;2023-02-01T00:24:34;4.10;99.90
11107;DHT22;5607;48.302;14.294;2023-02-01T00:27:20;4.20;99.90
11107;DHT22;5607;48.302;14.294;2023-02-01T00:30:07;4.30;99.90
11107;DHT22;5607;48.302;14.294;2023-02-01T00:32:54;4.40;99.90
11107;DHT22;5607;48.302;14.294;2023-02-01T00:35:41;4.40;93.40
11107;DHT22;5607;48.302;14.294;2023-02-01T00:38:31;4.40;99.90
11107;DHT22;5607;48.302;14.294;2023-02-01T00:41:19;4.40;99.90
11107;DHT22;5607;48.302;14.294;2023-02-01T00:44:07;4.30;99.90
11107;DHT22;5607;48.302;14.294;2023-02-01T00:46:54;4.40;99.90
11107;DHT22;5607;48.302;14.294;2023-02-01T00:49:40;4.50;99.90
11107;DHT22;5607;48.302;14.294;2023-02-01T00:52:27;4.40;84.30
11107;DHT22;5607;48.302;14.294;2023-02-01T00:55:14;4.30;99.90
11107;DHT22;5607;48.302;14.294;2023-02-01T00:58:00;4.30;99.90
11107;DHT22;5607;48.302;14.294;2023-02-01T01:00:47;4.30;99.90
11107;DHT22;5607;48.302;14.294;2023-02-01T01:03:45;4.30;91.40
11107;DHT22;5607;48.302;14.294;2023-02-01T01:06:34;4.40;99.90
11107;DHT22;5607;48.302;14.294;2023-02-01T01:09:20;4.50;99.90
11107;DHT22;5607;48.302;14.294;2023-02-01T01:12:07;4.60;99.90
11107;DHT22;5607;48.302;14.294;2023-02-01T01:14:54;4.70;98.90
11107;DHT22;5607;48.302;14.294;2023-02-01T01:17:40;4.60;74.70
11107;DHT22;5607;48.302;14.294;2023-02-01T01:20:27;4.80;82.80
11107;DHT22;5607;48.302;14.294;2023-02-01T01:23:14;4.70;72.80
11107;DHT22;5607;48.302;14.294;2023-02-01T01:26:04;4.80;74.30
11107;DHT22;5607;48.302;14.294;2023-02-01T01:28:51;4.80;62.40
11107;DHT22;5607;48.302;14.294;2023-02-01T01:31:38;4.90;64.00
11107;DHT22;5607;48.302;14.294;2023-02-01T01:34:25;4.90;49.20
11107;DHT22;5607;48.302;14.294;2023-02-01T01:37:11;4.90;41.60
11107;DHT22;5607;48.302;14.294;2023-02-01T01:39:58;5.00;56.30
11107;DHT22;5607;48.302;14.294;2023-02-01T01:42:44;4.90;36.10
11107;DHT22;5607;48.302;14.294;2023-02-01T01:45:32;4.90;30.50
11107;DHT22;5607;48.302;14.294;2023-02-01T01:48:22;4.80;31.50
11107;DHT22;5607;48.302;14.294;2023-02-01T01:51:14;4.80;34.90
11107;DHT22;5607;48.302;14.294;2023-02-01T01:54:10;4.80;37.50
11107;DHT22;5607;48.302;14.294;2023-02-01T01:56:59;4.90;33.70
11107;DHT22;5607;48.302;14.294;2023-02-01T01:59:53;4.90;28.10
11107;DHT22;5607;48.302;14.294;2023-02-01T02:02:50;5.00;22.90
11107;DHT22;5607;48.302;14.294;2023-02-01T02:05:41;5.00;17.20
11107;DHT22;5607;48.302;14.294;2023-02-01T02:08:28;5.00;11.80
11107;DHT22;5607;48.302;14.294;2023-02-01T02:11:16;5.00;17.30
11107;DHT22;5607;48.302;14.294;2023-02-01T02:14:03;5.00;9.40
11107;DHT22;5607;48.302;14.294;2023-02-01T02:27:03;5.20;2.40
11107;DHT22;5607;48.302;14.294;2023-02-01T02:36:29;5.20;1.00
11107;DHT22;5607;48.302;14.294;2023-02-01T02:46:27;5.30;1.00
11107;DHT22;5607;48.302;14.294;2023-02-01T02:53:10;5.20;1.00
11107;DHT22;5607;48.302;14.294;2023-02-01T02:56:21;5.20;15.80
11107;DHT22;5607;48.302;14.294;2023-02-01T02:59:29;5.20;18.10
11107;DHT22;5607;48.302;14.294;2023-02-01T03:02:36;5.20;26.20
11107;DHT22;5607;48.302;14.294;2023-02-01T03:05:46;5.20;15.60
11107;DHT22;5607;48.302;14.294;2023-02-01T03:08:36;5.20;25.60
11107;DHT22;5607;48.302;14.294;2023-02-01T03:11:23;5.20;29.80
11107;DHT22;5607;48.302;14.294;2023-02-01T03:14:30;5.20;27.70
11107;DHT22;5607;48.302;14.294;2023-02-01T03:17:21;5.30;28.10
11107;DHT22;5607;48.302;14.294;2023-02-01T03:20:13;5.30;19.00
11107;DHT22;5607;48.302;14.294;2023-02-01T03:23:05;5.30;15.90
11107;DHT22;5607;48.302;14.294;2023-02-01T03:25:53;5.30;23.20
11107;DHT22;5607;48.302;14.294;2023-02-01T03:28:44;5.40;18.60
11107;DHT22;5607;48.302;14.294;2023-02-01T03:31:38;5.40;13.00
11107;DHT22;5607;48.302;14.294;2023-02-01T03:34:25;5.40;13.20
11107;DHT22;5607;48.302;14.294;2023-02-01T03:37:12;5.50;7.70
11107;DHT22;5607;48.302;14.294;2023-02-01T03:40:05;5.40;1.00
11107;DHT22;5607;48.302;14.294;2023-02-01T03:42:58;5.40;2.20
11107;DHT22;5607;48.302;14.294;2023-02-01T03:45:48;5.40;1.00
11107;DHT22;5607;48.302;14.294;2023-02-01T03:48:38;5.50;1.00
11107;DHT22;5607;48.302;14.294;2023-02-01T03:51:26;5.50;1.00
11107;DHT22;5607;48.302;14.294;2023-02-01T03:54:13;5.50;1.00
11107;DHT22;5607;48.302;14.294;2023-02-01T03:57:03;5.50;1.00
11107;DHT22;5607;48.302;14.294;2023-02-01T03:59:54;5.60;1.00
11107;DHT22;5607;48.302;14.294;2023-02-01T04:02:54;5.60;1.00
11107;DHT22;5607;48.302;14.294;2023-02-01T04:05:40;5.60;1.00
11107;DHT22;5607;48.302;14.294;2023-02-01T04:08:27;5.60;1.00
11107;DHT22;5607;48.302;14.294;2023-02-01T04:11:14;5.70;1.00
11107;DHT22;5607;48.302;14.294;2023-02-01T04:14:01;5.60;1.00
11107;DHT22;5607;48.302;14.294;2023-02-01T04:16:50;5.60;1.00
11107;DHT22;5607;48.302;14.294;2023-02-01T04:19:37;5.60;1.00
11107;DHT22;5607;48.302;14.294;2023-02-01T04:22:23;5.50;1.00
11107;DHT22;5607;48.302;14.294;2023-02-01T04:25:10;5.50;1.00
11107;DHT22;5607;48.302;14.294;2023-02-01T04:27:56;5.60;1.00
11107;DHT22;5607;48.302;14.294;2023-02-01T04:30:43;5.70;1.00
11107;DHT22;5607;48.302;14.294;2023-02-01T04:33:30;5.60;1.00
11107;DHT22;5607;48.302;14.294;2023-02-01T04:36:18;5.60;1.00
11107;DHT22;5607;48.302;14.294;2023-02-01T04:39:09;5.60;1.00
11107;DHT22;5607;48.302;14.294;2023-02-01T04:41:56;5.60;1.00
11107;DHT22;5607;48.302;14.294;2023-02-01T04:44:42;5.60;1.00
11107;DHT22;5607;48.302;14.294;2023-02-01T04:47:29;5.70;1.00
11107;DHT22;5607;48.302;14.294;2023-02-01T04:50:15;5.70;1.00
11107;DHT22;5607;48.302;14.294;2023-02-01T04:53:02;5.60;1.00
11107;DHT22;5607;48.302;14.294;2023-02-01T04:55:49;5.60;1.00
11107;DHT22;5607;48.302;14.294;2023-02-01T04:58:36;5.60;1.00
11107;DHT22;5607;48.302;14.294;2023-02-01T05:01:23;5.60;1.00
11107;DHT22;5607;48.302;14.294;2023-02-01T05:04:12;5.70;1.00
11107;DHT22;5607;48.302;14.294;2023-02-01T05:06:59;5.70;1.00
11107;DHT22;5607;48.302;14.294;2023-02-01T05:09:45;5.70;1.00
11107;DHT22;5607;48.302;14.294;2023-02-01T05:12:32;5.80;1.00
11107;DHT22;5607;48.302;14.294;2023-02-01T05:15:37;5.80;1.00
11107;DHT22;5607;48.302;14.294;2023-02-01T05:18:24;5.80;1.00
11107;DHT22;5607;48.302;14.294;2023-02-01T05:21:10;5.80;1.00
11107;DHT22;5607;48.302;14.294;2023-02-01T05:23:57;5.80;1.00
11107;DHT22;5607;48.302;14.294;2023-02-01T05:26:55;5.70;1.00
11107;DHT22;5607;48.302;14.294;2023-02-01T05:29:42;5.70;1.00
11107;DHT22;5607;48.302;14.294;2023-02-01T05:32:28;5.70;1.00
11107;DHT22;5607;48.302;14.294;2023-02-01T05:35:15;5.80;1.00
11107;DHT22;5607;48.302;14.294;2023-02-01T05:38:02;5.70;1.00
11107;DHT22;5607;48.302;14.294;2023-02-01T05:40:48;5.80;1.00
11107;DHT22;5607;48.302;14.294;2023-02-01T05:43:36;5.80;1.00
11107;DHT22;5607;48.302;14.294;2023-02-01T05:46:23;5.80;1.00
11107;DHT22;5607;48.302;14.294;2023-02-01T05:49:10;5.80;1.00
11107;DHT22;5607;48.302;14.294;2023-02-01T05:51:56;5.80;1.00
11107;DHT22;5607;48.302;14.294;2023-02-01T05:54:43;5.80;1.00
11107;DHT22;5607;48.302;14.294;2023-02-01T05:57:29;5.90;1.00
11107;DHT22;5607;48.302;14.294;2023-02-01T06:00:16;5.80;1.00
11107;DHT22;5607;48.302;14.294;2023-02-01T06:03:03;5.90;1.00
11107;DHT22;5607;48.302;14.294;2023-02-01T06:05:49;5.90;1.00
11107;DHT22;5607;48.302;14.294;2023-02-01T06:08:36;5.90;1.00
11107;DHT22;5607;48.302;14.294;2023-02-01T06:11:26;5.90;1.00
11107;DHT22;5607;48.302;14.294;2023-02-01T06:14:14;5.90;1.00
11107;DHT22;5607;48.302;14.294;2023-02-01T06:17:00;5.80;1.00
11107;DHT22;5607;48.302;14.294;2023-02-01T06:19:47;5.80;1.00
11107;DHT22;5607;48.302;14.294;2023-02-01T06:22:34;5.80;1.00
11107;DHT22;5607;48.302;14.294;2023-02-01T06:25:22;5.80;1.00
11107;DHT22;5607;48.302;14.294;2023-02-01T06:28:08;5.80;1.00
11107;DHT22;5607;48.302;14.294;2023-02-01T06:30:55;5.90;1.00
11107;DHT22;5607;48.302;14.294;2023-02-01T06:33:44;5.90;1.00
11107;DHT22;5607;48.302;14.294;2023-02-01T06:36:31;5.80;1.00
11107;DHT22;5607;48.302;14.294;2023-02-01T06:39:18;5.80;1.00
11107;DHT22;5607;48.302;14.294;2023-02-01T06:42:05;5.70;1.00
11107;DHT22;5607;48.302;14.294;2023-02-01T06:44:52;5.80;1.00
11107;DHT22;5607;48.302;14.294;2023-02-01T06:47:38;5.80;1.00
11107;DHT22;5607;48.302;14.294;2023-02-01T06:50:25;5.80;1.00
11107;DHT22;5607;48.302;14.294;2023-02-01T06:53:12;5.80;1.00
11107;DHT22;5607;48.302;14.294;2023-02-01T06:56:01;5.90;1.00
11107;DHT22;5607;48.302;14.294;2023-02-01T06:58:48;5.80;1.00
11107;DHT22;5607;48.302;14.294;2023-02-01T07:01:35;5.80;1.00
11107;DHT22;5607;48.302;14.294;2023-02-01T07:04:22;5.80;1.00
11107;DHT22;5607;48.302;14.294;2023-02-01T07:07:08;5.90;1.00
11107;DHT22;5607;48.302;14.294;2023-02-01T07:09:55;5.80;1.00
11107;DHT22;5607;48.302;14.294;2023-02-01T07:12:42;5.90;1.00
11107;DHT22;5607;48.302;14.294;2023-02-01T07:15:28;5.90;1.00
11107;DHT22;5607;48.302;14.294;2023-02-01T07:18:15;6.00;1.00
11107;DHT22;5607;48.302;14.294;2023-02-01T07:21:01;6.00;1.00
11107;DHT22;5607;48.302;14.294;2023-02-01T07:23:48;6.00;1.00
11107;DHT22;5607;48.302;14.294;2023-02-01T07:26:34;6.00;1.00
11107;DHT22;5607;48.302;14.294;2023-02-01T07:29:21;6.00;1.00
11107;DHT22;5607;48.302;14.294;2023-02-01T07:32:08;6.00;1.00
11107;DHT22;5607;48.302;14.294;2023-02-01T07:34:54;5.90;1.00
11107;DHT22;5607;48.302;14.294;2023-02-01T07:37:41;6.00;1.00
11107;DHT22;5607;48.302;14.294;2023-02-01T07:40:27;6.00;1.00
11107;DHT22;5607;48.302;14.294;2023-02-01T07:43:17;6.00;1.00
11107;DHT22;5607;48.302;14.294;2023-02-01T07:46:04;6.00;1.00
11107;DHT22;5607;48.302;14.294;2023-02-01T07:48:51;5.90;1.00
11107;DHT22;5607;48.302;14.294;2023-02-01T07:51:37;5.90;1.00
11107;DHT22;5607;48.302;14.294;2023-02-01T07:54:24;5.80;1.00
11107;DHT22;5607;48.302;14.294;2023-02-01T07:57:10;5.90;1.00
11107;DHT22;5607;48.302;14.294;2023-02-01T07:59:57;6.00;1.00
11107;DHT22;5607;48.302;14.294;2023-02-01T08:03:03;6.00;1.00
11107;DHT22;5607;48.302;14.294;2023-02-01T08:05:54;6.00;1.00
11107;DHT22;5607;48.302;14.294;2023-02-01T08:08:41;6.00;1.00
11107;DHT22;5607;48.302;14.294;2023-02-01T08:11:31;5.90;1.00
11107;DHT22;5607;48.302;14.294;2023-02-01T08:14:18;6.00;1.00
11107;DHT22;5607;48.302;14.294;2023-02-01T08:17:04;5.90;1.00
11107;DHT22;5607;48.302;14.294;2023-02-01T08:19:51;5.90;1.00
11107;DHT22;5607;48.302;14.294;2023-02-01T08:22:37;5.90;1.00
11107;DHT22;5607;48.302;14.294;2023-02-01T08:25:24;5.90;1.00
11107;DHT22;5607;48.302;14.294;2023-02-01T08:28:11;5.80;1.00
11107;DHT22;5607;48.302;14.294;2023-02-01T08:30:57;5.70;1.00
11107;DHT22;5607;48.302;14.294;2023-02-01T08:33:47;5.80;1.00
11107;DHT22;5607;48.302;14.294;2023-02-01T08:36:38;5.70;1.00
11107;DHT22;5607;48.302;14.294;2023-02-01T08:39:25;5.80;1.00
11107;DHT22;5607;48.302;14.294;2023-02-01T08:42:12;5.80;1.00
11107;DHT22;5607;48.302;14.294;2023-02-01T08:45:21;5.90;1.00
11107;DHT22;5607;48.302;14.294;2023-02-01T08:48:12;5.90;1.00
11107;DHT22;5607;48.302;14.294;2023-02-01T08:51:02;6.00;1.00
11107;DHT22;5607;48.302;14.294;2023-02-01T08:53:52;6.00;1.00
11107;DHT22;5607;48.302;14.294;2023-02-01T08:56:38;6.00;1.00
11107;DHT22;5607;48.302;14.294;2023-02-01T08:59:25;6.00;1.00
11107;DHT22;5607;48.302;14.294;2023-02-01T09:02:12;5.80;1.00
11107;DHT22;5607;48.302;14.294;2023-02-01T09:05:00;5.70;1.00
11107;DHT22;5607;48.302;14.294;2023-02-01T09:07:46;5.70;1.00
11107;DHT22;5607;48.302;14.294;2023-02-01T09:10:33;5.80;1.00
11107;DHT22;5607;48.302;14.294;2023-02-01T09:13:20;5.90;1.00
11107;DHT22;5607;48.302;14.294;2023-02-01T09:16:08;5.90;1.00
11107;DHT22;5607;48.302;14.294;2023-02-01T09:18:55;5.90;1.00
11107;DHT22;5607;48.302;14.294;2023-02-01T09:21:41;5.90;1.00
11107;DHT22;5607;48.302;14.294;2023-02-01T09:24:28;5.80;1.00
11107;DHT22;5607;48.302;14.294;2023-02-01T09:27:15;5.80;1.00
11107;DHT22;5607;48.302;14.294;2023-02-01T09:30:02;5.90;1.00
11107;DHT22;5607;48.302;14.294;2023-02-01T09:32:50;5.90;1.00
11107;DHT22;5607;48.302;14.294;2023-02-01T09:35:37;5.90;1.00
11107;DHT22;5607;48.302;14.294;2023-02-01T09:38:24;5.80;1.00
11107;DHT22;5607;48.302;14.294;2023-02-01T09:44:34;5.80;1.00
11107;DHT22;5607;48.302;14.294;2023-02-01T09:47:27;5.80;1.00
11107;DHT22;5607;48.302;14.294;2023-02-01T09:50:17;5.80;1.00
11107;DHT22;5607;48.302;14.294;2023-02-01T09:56:05;6.00;1.00
11107;DHT22;5607;48.302;14.294;2023-02-01T09:58:59;6.10;1.00
11107;DHT22;5607;48.302;14.294;2023-02-01T10:01:48;6.10;1.00
11107;DHT22;5607;48.302;14.294;2023-02-01T10:04:35;6.00;1.00
11107;DHT22;5607;48.302;14.294;2023-02-01T10:11:32;5.90;1.00
11107;DHT22;5607;48.302;14.294;2023-02-01T10:14:12;6.00;1.00
11107;DHT22;5607;48.302;14.294;2023-02-01T10:26:26;5.50;19.50
11107;DHT22;5607;48.302;14.294;2023-02-01T10:29:19;5.50;46.30
11107;DHT22;5607;48.302;14.294;2023-02-01T10:32:11;5.60;38.50
11107;DHT22;5607;48.302;14.294;2023-02-01T10:35:26;5.50;37.80
11107;DHT22;5607;48.302;14.294;2023-02-01T10:38:25;5.40;83.40
11107;DHT22;5607;48.302;14.294;2023-02-01T10:41:16;5.30;99.90
11107;DHT22;5607;48.302;14.294;2023-02-01T10:44:15;5.10;99.90
11107;DHT22;5607;48.302;14.294;2023-02-01T10:47:09;5.00;99.90
11107;DHT22;5607;48.302;14.294;2023-02-01T10:53:41;5.00;99.90
11107;DHT22;5607;48.302;14.294;2023-02-01T10:56:32;4.90;99.90
11107;DHT22;5607;48.302;14.294;2023-02-01T10:59:24;4.70;99.90
11107;DHT22;5607;48.302;14.294;2023-02-01T11:05:42;4.50;99.90
11107;DHT22;5607;48.302;14.294;2023-02-01T11:08:30;4.40;99.90
11107;DHT22;5607;48.302;14.294;2023-02-01T11:11:18;4.40;99.90
11107;DHT22;5607;48.302;14.294;2023-02-01T11:14:13;4.20;99.90
11107;DHT22;5607;48.302;14.294;2023-02-01T11:17:48;4.20;99.90
11107;DHT22;5607;48.302;14.294;2023-02-01T11:23:03;4.00;99.90
11107;DHT22;5607;48.302;14.294;2023-02-01T11:25:51;4.10;99.90
11107;DHT22;5607;48.302;14.294;2023-02-01T11:28:41;4.10;99.90
11107;DHT22;5607;48.302;14.294;2023-02-01T11:31:36;4.20;99.90
11107;DHT22;5607;48.302;14.294;2023-02-01T11:34:25;4.30;99.90
11107;DHT22;5607;48.302;14.294;2023-02-01T11:37:36;4.50;99.90
11107;DHT22;5607;48.302;14.294;2023-02-01T11:40:33;4.60;99.90
11107;DHT22;5607;48.302;14.294;2023-02-01T11:43:25;4.90;99.90
11107;DHT22;5607;48.302;14.294;2023-02-01T11:46:17;5.20;99.90
11107;DHT22;5607;48.302;14.294;2023-02-01T11:49:19;5.50;99.90
11107;DHT22;5607;48.302;14.294;2023-02-01T11:52:24;5.80;99.90
11107;DHT22;5607;48.302;14.294;2023-02-01T11:55:38;5.90;92.60
11107;DHT22;5607;48.302;14.294;2023-02-01T12:01:38;5.60;99.90
11107;DHT22;5607;48.302;14.294;2023-02-01T12:07:41;5.70;99.90
11107;DHT22;5607;48.302;14.294;2023-02-01T12:10:47;5.60;99.90
11107;DHT22;5607;48.302;14.294;2023-02-01T12:16:43;5.50;99.90
11107;DHT22;5607;48.302;14.294;2023-02-01T12:22:41;5.70;99.90
11107;DHT22;5607;48.302;14.294;2023-02-01T12:40:56;5.90;80.80
11107;DHT22;5607;48.302;14.294;2023-02-01T12:43:50;5.80;80.00
11107;DHT22;5607;48.302;14.294;2023-02-01T12:46:46;5.80;85.90
11107;DHT22;5607;48.302;14.294;2023-02-01T12:52:49;6.00;66.00
11107;DHT22;5607;48.302;14.294;2023-02-01T12:55:45;6.10;20.00
11107;DHT22;5607;48.302;14.294;2023-02-01T13:01:45;6.30;1.00
11107;DHT22;5607;48.302;14.294;2023-02-01T13:04:36;6.40;1.00
11107;DHT22;5607;48.302;14.294;2023-02-01T13:07:34;6.50;1.00
11107;DHT22;5607;48.302;14.294;2023-02-01T13:10:32;6.50;1.00
11107;DHT22;5607;48.302;14.294;2023-02-01T13:14:30;6.40;1.00
11107;DHT22;5607;48.302;14.294;2023-02-01T13:17:10;5.90;77.30
11107;DHT22;5607;48.302;14.294;2023-02-01T13:22:59;4.30;99.90
11107;DHT22;5607;48.302;14.294;2023-02-01T13:25:52;4.10;99.90
11107;DHT22;5607;48.302;14.294;2023-02-01T13:40:42;4.10;99.90
11107;DHT22;5607;48.302;14.294;2023-02-01T13:43:33;4.10;99.90
11107;DHT22;5607;48.302;14.294;2023-02-01T13:46:21;4.20;99.90
11107;DHT22;5607;48.302;14.294;2023-02-01T13:49:13;4.30;99.90
11107;DHT22;5607;48.302;14.294;2023-02-01T13:52:17;4.30;99.90
11107;DHT22;5607;48.302;14.294;2023-02-01T14:04:45;4.70;99.90
11107;DHT22;5607;48.302;14.294;2023-02-01T14:07:36;4.80;99.90
11107;DHT22;5607;48.302;14.294;2023-02-01T14:13:38;5.00;99.90
11107;DHT22;5607;48.302;14.294;2023-02-01T14:16:26;4.90;99.90
11107;DHT22;5607;48.302;14.294;2023-02-01T14:19:23;5.10;99.90
11107;DHT22;5607;48.302;14.294;2023-02-01T14:25:16;5.20;99.90
11107;DHT22;5607;48.302;14.294;2023-02-01T14:28:10;5.20;99.90
11107;DHT22;5607;48.302;14.294;2023-02-01T14:31:22;5.20;99.90
11107;DHT22;5607;48.302;14.294;2023-02-01T14:34:21;5.10;99.90
11107;DHT22;5607;48.302;14.294;2023-02-01T14:40:05;5.20;99.90
11107;DHT22;5607;48.302;14.294;2023-02-01T14:43:01;5.30;99.90
11107;DHT22;5607;48.302;14.294;2023-02-01T14:45:49;5.40;99.90
11107;DHT22;5607;48.302;14.294;2023-02-01T14:51:23;5.60;76.10
11107;DHT22;5607;48.302;14.294;2023-02-01T14:54:11;5.70;39.90
11107;DHT22;5607;48.302;14.294;2023-02-01T14:57:00;5.70;45.00
11107;DHT22;5607;48.302;14.294;2023-02-01T14:59:47;5.60;42.30
11107;DHT22;5607;48.302;14.294;2023-02-01T15:02:39;5.60;72.60
11107;DHT22;5607;48.302;14.294;2023-02-01T15:08:22;5.50;99.90
11107;DHT22;5607;48.302;14.294;2023-02-01T15:11:16;5.50;80.80
11107;DHT22;5607;48.302;14.294;2023-02-01T15:14:11;5.60;63.80
11107;DHT22;5607;48.302;14.294;2023-02-01T15:17:00;5.60;57.30
11107;DHT22;5607;48.302;14.294;2023-02-01T15:22:40;5.70;94.40
11107;DHT22;5607;48.302;14.294;2023-02-01T15:25:28;5.70;80.80
11107;DHT22;5607;48.302;14.294;2023-02-01T15:28:17;5.80;64.80
11107;DHT22;5607;48.302;14.294;2023-02-01T15:31:04;5.70;7.00
11107;DHT22;5607;48.302;14.294;2023-02-01T15:33:57;5.80;1.00
11107;DHT22;5607;48.302;14.294;2023-02-01T15:36:44;5.80;1.00
11107;DHT22;5607;48.302;14.294;2023-02-01T15:39:31;5.80;1.00
11107;DHT22;5607;48.302;14.294;2023-02-01T15:42:20;5.90;1.00
11107;DHT22;5607;48.302;14.294;2023-02-01T15:45:28;5.90;1.00
11107;DHT22;5607;48.302;14.294;2023-02-01T15:48:18;6.00;1.00
11107;DHT22;5607;48.302;14.294;2023-02-01T15:51:16;6.00;1.00
11107;DHT22;5607;48.302;14.294;2023-02-01T15:54:06;6.00;1.00
11107;DHT22;5607;48.302;14.294;2023-02-01T15:56:54;6.00;1.00
11107;DHT22;5607;48.302;14.294;2023-02-01T15:59:43;6.00;1.00
11107;DHT22;5607;48.302;14.294;2023-02-01T16:02:35;6.10;1.00
11107;DHT22;5607;48.302;14.294;2023-02-01T16:05:34;6.00;1.00
11107;DHT22;5607;48.302;14.294;2023-02-01T16:08:27;5.70;1.00
11107;DHT22;5607;48.302;14.294;2023-02-01T16:14:10;5.50;1.00
11107;DHT22;5607;48.302;14.294;2023-02-01T16:16:58;5.40;1.20
11107;DHT22;5607;48.302;14.294;2023-02-01T16:19:45;5.40;1.00
11107;DHT22;5607;48.302;14.294;2023-02-01T16:22:31;5.30;1.00
11107;DHT22;5607;48.302;14.294;2023-02-01T16:25:18;5.20;1.00
11107;DHT22;5607;48.302;14.294;2023-02-01T16:28:05;5.20;1.00
11107;DHT22;5607;48.302;14.294;2023-02-01T16:30:51;5.20;1.00
11107;DHT22;5607;48.302;14.294;2023-02-01T16:33:38;5.20;1.00
11107;DHT22;5607;48.302;14.294;2023-02-01T16:36:25;5.20;1.00
11107;DHT22;5607;48.302;14.294;2023-02-01T16:39:13;5.30;1.00
11107;DHT22;5607;48.302;14.294;2023-02-01T16:42:00;5.30;1.00
11107;DHT22;5607;48.302;14.294;2023-02-01T16:44:51;5.40;1.00
11107;DHT22;5607;48.302;14.294;2023-02-01T16:47:38;5.40;1.00
11107;DHT22;5607;48.302;14.294;2023-02-01T16:50:29;5.40;1.00
11107;DHT22;5607;48.302;14.294;2023-02-01T16:53:19;5.50;1.00
11107;DHT22;5607;48.302;14.294;2023-02-01T16:56:13;5.50;1.00
11107;DHT22;5607;48.302;14.294;2023-02-01T16:59:01;5.70;1.00
11107;DHT22;5607;48.302;14.294;2023-02-01T17:01:48;5.70;1.00
11107;DHT22;5607;48.302;14.294;2023-02-01T17:04:34;5.70;1.00
11107;DHT22;5607;48.302;14.294;2023-02-01T17:07:21;5.70;1.00
11107;DHT22;5607;48.302;14.294;2023-02-01T17:10:14;5.70;1.00
11107;DHT22;5607;48.302;14.294;2023-02-01T17:13:12;5.80;1.00
11107;DHT22;5607;48.302;14.294;2023-02-01T17:16:03;5.90;1.00
11107;DHT22;5607;48.302;14.294;2023-02-01T17:19:08;5.90;1.00
11107;DHT22;5607;48.302;14.294;2023-02-01T17:21:59;5.90;1.00
11107;DHT22;5607;48.302;14.294;2023-02-01T17:24:45;5.90;1.00
11107;DHT22;5607;48.302;14.294;2023-02-01T17:27:32;6.00;1.00
11107;DHT22;5607;48.302;14.294;2023-02-01T17:30:19;6.00;1.00
11107;DHT22;5607;48.302;14.294;2023-02-01T17:33:18;6.00;1.00
11107;DHT22;5607;48.302;14.294;2023-02-01T17:36:12;6.10;1.00
11107;DHT22;5607;48.302;14.294;2023-02-01T17:39:01;6.10;1.00
11107;DHT22;5607;48.302;14.294;2023-02-01T17:41:48;6.10;1.00
11107;DHT22;5607;48.302;14.294;2023-02-01T17:44:36;6.10;1.00
11107;DHT22;5607;48.302;14.294;2023-02-01T17:47:23;6.10;1.00
11107;DHT22;5607;48.302;14.294;2023-02-01T17:50:09;6.10;1.00
11107;DHT22;5607;48.302;14.294;2023-02-01T17:52:56;6.20;1.00
11107;DHT22;5607;48.302;14.294;2023-02-01T17:55:43;6.20;1.00
11107;DHT22;5607;48.302;14.294;2023-02-01T17:58:31;6.20;1.00
11107;DHT22;5607;48.302;14.294;2023-02-01T18:01:19;6.10;1.00
11107;DHT22;5607;48.302;14.294;2023-02-01T18:04:13;6.10;1.00
11107;DHT22;5607;48.302;14.294;2023-02-01T18:07:02;6.20;1.00
11107;DHT22;5607;48.302;14.294;2023-02-01T18:09:48;6.10;1.00
11107;DHT22;5607;48.302;14.294;2023-02-01T18:12:35;6.20;1.00
11107;DHT22;5607;48.302;14.294;2023-02-01T18:15:23;6.20;1.00
11107;DHT22;5607;48.302;14.294;2023-02-01T18:18:11;6.20;1.00
11107;DHT22;5607;48.302;14.294;2023-02-01T18:20:57;6.20;1.00
11107;DHT22;5607;48.302;14.294;2023-02-01T18:23:44;6.20;1.00
11107;DHT22;5607;48.302;14.294;2023-02-01T18:26:31;6.20;1.00
11107;DHT22;5607;48.302;14.294;2023-02-01T18:29:17;6.20;1.00
11107;DHT22;5607;48.302;14.294;2023-02-01T18:32:04;6.20;1.00
11107;DHT22;5607;48.302;14.294;2023-02-01T18:34:50;6.20;1.00
11107;DHT22;5607;48.302;14.294;2023-02-01T18:37:37;6.30;1.00
11107;DHT22;5607;48.302;14.294;2023-02-01T18:40:25;6.30;1.00
11107;DHT22;5607;48.302;14.294;2023-02-01T18:43:18;6.30;1.00
11107;DHT22;5607;48.302;14.294;2023-02-01T18:46:05;6.30;1.00
11107;DHT22;5607;48.302;14.294;2023-02-01T18:48:54;6.30;1.00
11107;DHT22;5607;48.302;14.294;2023-02-01T18:51:41;6.30;1.00
11107;DHT22;5607;48.302;14.294;2023-02-01T18:54:28;6.30;1.00
11107;DHT22;5607;48.302;14.294;2023-02-01T18:57:17;6.30;1.00
11107;DHT22;5607;48.302;14.294;2023-02-01T19:00:07;6.30;1.00
11107;DHT22;5607;48.302;14.294;2023-02-01T19:02:57;6.20;1.00
11107;DHT22;5607;48.302;14.294;2023-02-01T19:05:44;6.20;1.00
11107;DHT22;5607;48.302;14.294;2023-02-01T19:08:36;6.20;1.00
11107;DHT22;5607;48.302;14.294;2023-02-01T19:11:25;6.20;1.00
11107;DHT22;5607;48.302;14.294;2023-02-01T19:14:12;6.20;1.00
11107;DHT22;5607;48.302;14.294;2023-02-01T19:16:59;6.20;1.00
11107;DHT22;5607;48.302;14.294;2023-02-01T19:19:48;6.20;1.00
11107;DHT22;5607;48.302;14.294;2023-02-01T19:22:35;6.20;1.00
11107;DHT22;5607;48.302;14.294;2023-02-01T19:25:24;6.20;1.00
11107;DHT22;5607;48.302;14.294;2023-02-01T19:28:11;6.30;1.00
11107;DHT22;5607;48.302;14.294;2023-02-01T19:31:05;6.30;1.00
11107;DHT22;5607;48.302;14.294;2023-02-01T19:33:53;6.30;1.00
11107;DHT22;5607;48.302;14.294;2023-02-01T19:36:40;6.30;1.00
11107;DHT22;5607;48.302;14.294;2023-02-01T19:39:27;6.30;1.00
11107;DHT22;5607;48.302;14.294;2023-02-01T19:42:13;6.20;1.00
11107;DHT22;5607;48.302;14.294;2023-02-01T19:45:00;6.30;1.00
11107;DHT22;5607;48.302;14.294;2023-02-01T19:47:47;6.40;1.00
11107;DHT22;5607;48.302;14.294;2023-02-01T19:50:36;6.30;1.00
11107;DHT22;5607;48.302;14.294;2023-02-01T19:53:23;6.30;1.00
11107;DHT22;5607;48.302;14.294;2023-02-01T19:56:12;6.30;1.00
11107;DHT22;5607;48.302;14.294;2023-02-01T19:58:59;6.20;1.00
11107;DHT22;5607;48.302;14.294;2023-02-01T20:01:46;6.00;1.00
11107;DHT22;5607;48.302;14.294;2023-02-01T20:04:33;5.90;1.00
11107;DHT22;5607;48.302;14.294;2023-02-01T20:07:19;5.70;1.00
11107;DHT22;5607;48.302;14.294;2023-02-01T20:10:07;5.50;1.00
11107;DHT22;5607;48.302;14.294;2023-02-01T20:12:54;5.40;1.00
11107;DHT22;5607;48.302;14.294;2023-02-01T20:15:41;5.20;1.00
11107;DHT22;5607;48.302;14.294;2023-02-01T20:18:28;5.20;1.00
11107;DHT22;5607;48.302;14.294;2023-02-01T20:21:15;5.20;1.00
11107;DHT22;5607;48.302;14.294;2023-02-01T20:24:04;5.30;1.00
11107;DHT22;5607;48.302;14.294;2023-02-01T20:26:52;5.40;1.00
11107;DHT22;5607;48.302;14.294;2023-02-01T20:29:39;5.40;1.00
11107;DHT22;5607;48.302;14.294;2023-02-01T20:32:29;5.50;1.00
11107;DHT22;5607;48.302;14.294;2023-02-01T20:35:16;5.50;1.00
11107;DHT22;5607;48.302;14.294;2023-02-01T20:38:03;5.50;1.00
11107;DHT22;5607;48.302;14.294;2023-02-01T20:40:50;5.60;1.00